sensor_id;sensor_type;location;lat;lon;timestamp;pressure;altitude;pressure_sealevel;temperature;humidity
27210;BME280;14721;42.668;23.386;2023-02-12T00:01:38;96283.53;;;1.12;47.52
27210;BME280;14721;42.668;23.386;2023-02-12T00:04:04;96288.63;;;1.19;47.65
27210;BME280;14721;42.668;23.386;2023-02-12T00:06:30;96292.09;;;1.21;48.35
27210;BME280;14721;42.668;23.386;2023-02-12T00:08:56;96293.56;;;1.33;47.94
27210;BME280;14721;42.668;23.386;2023-02-12T00:11:25;96287.34;;;1.35;48.02
27210;BME280;14721;42.668;23.386;2023-02-12T00:13:52;96285.56;;;1.37;48.11
27210;BME280;14721;42.668;23.386;2023-02-12T00:16:21;96300.34;;;1.43;47.91
27210;BME280;14721;42.668;23.386;2023-02-12T00:18:50;96297.00;;;1.36;48.27
27210;BME280;14721;42.668;23.386;2023-02-12T00:21:16;96292.31;;;1.47;47.90
27210;BME280;14721;42.668;23.386;2023-02-12T00:23:42;96298.41;;;1.51;47.72
27210;BME280;14721;42.668;23.386;2023-02-12T00:26:10;96287.13;;;1.44;48.11
27210;BME280;14721;42.668;23.386;2023-02-12T00:28:37;96288.69;;;1.53;47.86
27210;BME280;14721;42.668;23.386;2023-02-12T00:31:16;96291.38;;;1.51;47.87
27210;BME280;14721;42.668;23.386;2023-02-12T00:33:42;96288.88;;;1.45;47.78
27210;BME280;14721;42.668;23.386;2023-02-12T00:36:08;96273.84;;;1.49;47.86
27210;BME280;14721;42.668;23.386;2023-02-12T00:38:35;96280.94;;;1.47;47.96
27210;BME280;14721;42.668;23.386;2023-02-12T00:41:00;96279.28;;;1.43;47.63
27210;BME280;14721;42.668;23.386;2023-02-12T00:43:26;96273.19;;;1.41;47.93
27210;BME280;14721;42.668;23.386;2023-02-12T00:45:52;96262.84;;;1.33;47.54
27210;BME280;14721;42.668;23.386;2023-02-12T00:48:17;96268.97;;;1.34;47.91
27210;BME280;14721;42.668;23.386;2023-02-12T00:50:44;96264.41;;;1.40;47.99
27210;BME280;14721;42.668;23.386;2023-02-12T00:53:10;96262.78;;;1.36;47.56
27210;BME280;14721;42.668;23.386;2023-02-12T00:55:36;96249.94;;;1.23;48.39
27210;BME280;14721;42.668;23.386;2023-02-12T00:58:01;96252.44;;;1.29;48.47
27210;BME280;14721;42.668;23.386;2023-02-12T01:00:27;96253.38;;;1.25;48.40
27210;BME280;14721;42.668;23.386;2023-02-12T01:02:52;96237.50;;;1.28;47.95
27210;BME280;14721;42.668;23.386;2023-02-12T01:05:18;96244.53;;;1.29;48.44
27210;BME280;14721;42.668;23.386;2023-02-12T01:07:48;96244.38;;;1.35;47.93
27210;BME280;14721;42.668;23.386;2023-02-12T01:10:14;96254.00;;;1.36;47.83
27210;BME280;14721;42.668;23.386;2023-02-12T01:12:40;96244.38;;;1.35;47.74
27210;BME280;14721;42.668;23.386;2023-02-12T01:15:06;96246.91;;;1.39;47.59
27210;BME280;14721;42.668;23.386;2023-02-12T01:17:32;96251.94;;;1.48;47.70
27210;BME280;14721;42.668;23.386;2023-02-12T01:19:57;96252.22;;;1.38;47.74
27210;BME280;14721;42.668;23.386;2023-02-12T01:22:24;96256.47;;;1.42;48.14
27210;BME280;14721;42.668;23.386;2023-02-12T01:24:50;96264.34;;;1.43;47.97
27210;BME280;14721;42.668;23.386;2023-02-12T01:27:16;96260.81;;;1.44;47.93
27210;BME280;14721;42.668;23.386;2023-02-12T01:29:41;96259.06;;;1.43;48.13
27210;BME280;14721;42.668;23.386;2023-02-12T01:32:10;96263.50;;;1.41;48.21
27210;BME280;14721;42.668;23.386;2023-02-12T01:34:37;96259.84;;;1.48;47.93
27210;BME280;14721;42.668;23.386;2023-02-12T01:37:03;96250.22;;;1.46;48.13
27210;BME280;14721;42.668;23.386;2023-02-12T01:39:28;96252.91;;;1.44;48.27
27210;BME280;14721;42.668;23.386;2023-02-12T01:41:54;96244.97;;;1.46;48.38
27210;BME280;14721;42.668;23.386;2023-02-12T01:44:22;96248.72;;;1.36;48.78
27210;BME280;14721;42.668;23.386;2023-02-12T01:46:54;96244.47;;;1.32;48.83
27210;BME280;14721;42.668;23.386;2023-02-12T01:49:24;96243.69;;;1.27;49.46
27210;BME280;14721;42.668;23.386;2023-02-12T01:51:54;96235.06;;;1.20;49.73
27210;BME280;14721;42.668;23.386;2023-02-12T01:54:23;96231.66;;;1.17;49.49
27210;BME280;14721;42.668;23.386;2023-02-12T01:56:50;96233.50;;;1.13;49.64
27210;BME280;14721;42.668;23.386;2023-02-12T01:59:16;96225.78;;;1.06;50.24
27210;BME280;14721;42.668;23.386;2023-02-12T02:01:43;96221.31;;;1.09;50.14
27210;BME280;14721;42.668;23.386;2023-02-12T02:04:15;96238.22;;;0.98;50.70
27210;BME280;14721;42.668;23.386;2023-02-12T02:07:11;96221.78;;;0.90;51.18
27210;BME280;14721;42.668;23.386;2023-02-12T02:09:38;96228.72;;;0.92;50.86
27210;BME280;14721;42.668;23.386;2023-02-12T02:12:05;96241.13;;;0.86;51.26
27210;BME280;14721;42.668;23.386;2023-02-12T02:14:51;96238.72;;;0.77;51.86
27210;BME280;14721;42.668;23.386;2023-02-12T02:28:19;96220.41;;;0.33;53.18
27210;BME280;14721;42.668;23.386;2023-02-12T02:30:56;96223.06;;;0.31;53.79
27210;BME280;14721;42.668;23.386;2023-02-12T02:33:49;96222.94;;;0.37;53.65
27210;BME280;14721;42.668;23.386;2023-02-12T02:39:04;96214.13;;;0.40;53.75
27210;BME280;14721;42.668;23.386;2023-02-12T02:42:15;96211.44;;;0.41;53.77
27210;BME280;14721;42.668;23.386;2023-02-12T02:44:41;96223.69;;;0.42;53.82
27210;BME280;14721;42.668;23.386;2023-02-12T02:47:13;96229.78;;;0.44;54.13
27210;BME280;14721;42.668;23.386;2023-02-12T02:49:43;96225.66;;;0.33;54.72
27210;BME280;14721;42.668;23.386;2023-02-12T02:52:15;96232.66;;;0.34;54.82
27210;BME280;14721;42.668;23.386;2023-02-12T02:54:56;96236.91;;;0.39;54.90
27210;BME280;14721;42.668;23.386;2023-02-12T02:57:30;96242.97;;;0.43;54.97
27210;BME280;14721;42.668;23.386;2023-02-12T03:02:36;96243.88;;;0.42;55.24
27210;BME280;14721;42.668;23.386;2023-02-12T03:05:14;96245.50;;;0.47;54.81
27210;BME280;14721;42.668;23.386;2023-02-12T03:07:49;96241.19;;;0.45;54.96
27210;BME280;14721;42.668;23.386;2023-02-12T03:10:22;96234.13;;;0.45;54.90
27210;BME280;14721;42.668;23.386;2023-02-12T03:13:19;96228.88;;;0.45;55.05
27210;BME280;14721;42.668;23.386;2023-02-12T03:16:05;96229.50;;;0.58;54.96
27210;BME280;14721;42.668;23.386;2023-02-12T03:18:41;96234.66;;;0.62;54.96
27210;BME280;14721;42.668;23.386;2023-02-12T03:21:13;96233.66;;;0.68;55.03
27210;BME280;14721;42.668;23.386;2023-02-12T03:23:45;96229.94;;;0.78;55.00
27210;BME280;14721;42.668;23.386;2023-02-12T03:26:15;96222.88;;;0.78;54.25
27210;BME280;14721;42.668;23.386;2023-02-12T03:28:45;96228.28;;;0.72;54.43
27210;BME280;14721;42.668;23.386;2023-02-12T03:36:09;96221.88;;;0.85;54.31
27210;BME280;14721;42.668;23.386;2023-02-12T03:38:44;96209.47;;;0.90;54.06
27210;BME280;14721;42.668;23.386;2023-02-12T03:41:18;96215.53;;;0.94;54.12
27210;BME280;14721;42.668;23.386;2023-02-12T03:49:11;96216.03;;;1.09;54.18
27210;BME280;14721;42.668;23.386;2023-02-12T03:51:43;96220.22;;;1.18;53.51
27210;BME280;14721;42.668;23.386;2023-02-12T03:54:11;96217.69;;;1.13;53.25
27210;BME280;14721;42.668;23.386;2023-02-12T03:56:43;96213.31;;;1.14;53.48
27210;BME280;14721;42.668;23.386;2023-02-12T03:59:12;96206.31;;;1.11;53.28
27210;BME280;14721;42.668;23.386;2023-02-12T04:01:38;96215.97;;;1.12;52.99
27210;BME280;14721;42.668;23.386;2023-02-12T04:04:06;96212.44;;;1.13;53.15
27210;BME280;14721;42.668;23.386;2023-02-12T04:06:32;96206.38;;;1.10;53.28
27210;BME280;14721;42.668;23.386;2023-02-12T04:09:03;96213.31;;;1.14;53.11
27210;BME280;14721;42.668;23.386;2023-02-12T04:16:50;96209.69;;;1.18;53.24
27210;BME280;14721;42.668;23.386;2023-02-12T04:19:49;96217.81;;;1.09;54.07
27210;BME280;14721;42.668;23.386;2023-02-12T04:22:34;96223.91;;;1.11;53.47
27210;BME280;14721;42.668;23.386;2023-02-12T04:25:49;96234.31;;;1.15;53.25
27210;BME280;14721;42.668;23.386;2023-02-12T04:31:23;96237.81;;;1.16;53.49
27210;BME280;14721;42.668;23.386;2023-02-12T04:34:14;96236.84;;;1.20;53.83
27210;BME280;14721;42.668;23.386;2023-02-12T04:36:46;96234.28;;;1.17;53.64
27210;BME280;14721;42.668;23.386;2023-02-12T04:39:23;96232.47;;;1.19;53.67
27210;BME280;14721;42.668;23.386;2023-02-12T04:41:50;96239.22;;;1.30;53.21
27210;BME280;14721;42.668;23.386;2023-02-12T04:44:23;96228.81;;;1.26;53.53
27210;BME280;14721;42.668;23.386;2023-02-12T04:46:49;96238.50;;;1.24;53.99
27210;BME280;14721;42.668;23.386;2023-02-12T04:49:17;96244.75;;;1.20;53.94
27210;BME280;14721;42.668;23.386;2023-02-12T04:51:43;96241.44;;;1.10;54.03
27210;BME280;14721;42.668;23.386;2023-02-12T04:54:09;96240.47;;;1.14;54.42
27210;BME280;14721;42.668;23.386;2023-02-12T04:56:34;96245.59;;;1.20;54.31
27210;BME280;14721;42.668;23.386;2023-02-12T04:59:00;96247.63;;;1.09;54.63
27210;BME280;14721;42.668;23.386;2023-02-12T05:01:26;96237.31;;;1.00;54.87
27210;BME280;14721;42.668;23.386;2023-02-12T05:03:52;96235.28;;;1.11;54.78
27210;BME280;14721;42.668;23.386;2023-02-12T05:06:18;96232.50;;;1.17;54.94
27210;BME280;14721;42.668;23.386;2023-02-12T05:08:44;96241.19;;;1.21;54.91
27210;BME280;14721;42.668;23.386;2023-02-12T05:11:10;96242.84;;;1.25;54.88
27210;BME280;14721;42.668;23.386;2023-02-12T05:13:36;96239.31;;;1.27;54.68
27210;BME280;14721;42.668;23.386;2023-02-12T05:16:06;96240.06;;;1.31;54.55
27210;BME280;14721;42.668;23.386;2023-02-12T05:18:33;96243.63;;;1.30;54.66
27210;BME280;14721;42.668;23.386;2023-02-12T05:21:01;96253.22;;;1.31;54.73
27210;BME280;14721;42.668;23.386;2023-02-12T05:23:33;96263.69;;;1.34;54.63
27210;BME280;14721;42.668;23.386;2023-02-12T05:26:00;96255.06;;;1.29;55.11
27210;BME280;14721;42.668;23.386;2023-02-12T05:28:27;96248.81;;;1.33;55.80
27210;BME280;14721;42.668;23.386;2023-02-12T05:30:53;96263.63;;;1.37;55.65
27210;BME280;14721;42.668;23.386;2023-02-12T05:33:19;96274.88;;;1.43;55.57
27210;BME280;14721;42.668;23.386;2023-02-12T05:35:45;96263.22;;;1.53;55.19
27210;BME280;14721;42.668;23.386;2023-02-12T05:38:10;96272.00;;;1.54;55.06
27210;BME280;14721;42.668;23.386;2023-02-12T05:40:36;96272.06;;;1.51;55.01
27210;BME280;14721;42.668;23.386;2023-02-12T05:43:02;96279.84;;;1.55;54.75
27210;BME280;14721;42.668;23.386;2023-02-12T05:45:28;96276.13;;;1.64;54.92
27210;BME280;14721;42.668;23.386;2023-02-12T05:47:56;96282.38;;;1.60;55.31
27210;BME280;14721;42.668;23.386;2023-02-12T05:50:22;96288.53;;;1.60;55.75
27210;BME280;14721;42.668;23.386;2023-02-12T05:52:48;96290.34;;;1.57;56.50
27210;BME280;14721;42.668;23.386;2023-02-12T05:55:14;96298.31;;;1.54;57.10
27210;BME280;14721;42.668;23.386;2023-02-12T05:57:39;96297.34;;;1.58;56.92
27210;BME280;14721;42.668;23.386;2023-02-12T06:00:07;96298.22;;;1.58;57.67
27210;BME280;14721;42.668;23.386;2023-02-12T06:02:34;96295.59;;;1.58;58.31
27210;BME280;14721;42.668;23.386;2023-02-12T06:05:00;96301.88;;;1.53;59.80
27210;BME280;14721;42.668;23.386;2023-02-12T06:07:25;96302.09;;;1.44;60.96
27210;BME280;14721;42.668;23.386;2023-02-12T06:09:51;96292.78;;;1.28;62.23
27210;BME280;14721;42.668;23.386;2023-02-12T06:12:17;96298.94;;;1.28;62.44
27210;BME280;14721;42.668;23.386;2023-02-12T06:14:42;96293.78;;;1.24;63.02
27210;BME280;14721;42.668;23.386;2023-02-12T06:17:08;96300.75;;;1.25;63.67
27210;BME280;14721;42.668;23.386;2023-02-12T06:19:35;96303.47;;;1.22;63.84
27210;BME280;14721;42.668;23.386;2023-02-12T06:22:01;96307.84;;;1.23;64.23
27210;BME280;14721;42.668;23.386;2023-02-12T06:24:26;96293.72;;;1.27;64.49
27210;BME280;14721;42.668;23.386;2023-02-12T06:26:52;96309.41;;;1.31;64.73
27210;BME280;14721;42.668;23.386;2023-02-12T06:29:19;96306.47;;;1.43;64.89
27210;BME280;14721;42.668;23.386;2023-02-12T06:31:44;96311.78;;;1.42;65.42
27210;BME280;14721;42.668;23.386;2023-02-12T06:34:12;96304.00;;;1.37;66.37
27210;BME280;14721;42.668;23.386;2023-02-12T06:36:40;96307.44;;;1.41;67.85
27210;BME280;14721;42.668;23.386;2023-02-12T06:39:06;96312.81;;;1.36;69.04
27210;BME280;14721;42.668;23.386;2023-02-12T06:41:32;96320.59;;;1.41;69.13
27210;BME280;14721;42.668;23.386;2023-02-12T06:43:59;96313.59;;;1.38;69.80
27210;BME280;14721;42.668;23.386;2023-02-12T06:46:25;96321.53;;;1.37;70.37
27210;BME280;14721;42.668;23.386;2023-02-12T06:48:58;96313.41;;;1.47;70.60
27210;BME280;14721;42.668;23.386;2023-02-12T06:51:26;96311.13;;;1.32;71.79
27210;BME280;14721;42.668;23.386;2023-02-12T06:53:54;96303.16;;;1.35;72.55
27210;BME280;14721;42.668;23.386;2023-02-12T06:56:22;96313.75;;;1.32;73.26
27210;BME280;14721;42.668;23.386;2023-02-12T06:58:56;96317.53;;;1.21;74.11
27210;BME280;14721;42.668;23.386;2023-02-12T07:01:24;96314.91;;;1.21;74.15
27210;BME280;14721;42.668;23.386;2023-02-12T07:03:55;96323.53;;;1.27;74.33
27210;BME280;14721;42.668;23.386;2023-02-12T07:06:22;96311.22;;;1.28;74.80
27210;BME280;14721;42.668;23.386;2023-02-12T07:08:48;96313.78;;;1.31;74.67
27210;BME280;14721;42.668;23.386;2023-02-12T07:11:14;96309.41;;;1.31;74.60
27210;BME280;14721;42.668;23.386;2023-02-12T07:13:41;96316.44;;;1.29;74.80
27210;BME280;14721;42.668;23.386;2023-02-12T07:16:14;96314.59;;;1.34;74.53
27210;BME280;14721;42.668;23.386;2023-02-12T07:18:41;96325.78;;;1.44;74.50
27210;BME280;14721;42.668;23.386;2023-02-12T07:21:07;96328.50;;;1.41;74.27
27210;BME280;14721;42.668;23.386;2023-02-12T07:23:34;96312.03;;;1.31;74.64
27210;BME280;14721;42.668;23.386;2023-02-12T07:26:08;96316.97;;;1.45;73.86
27210;BME280;14721;42.668;23.386;2023-02-12T07:28:35;96316.13;;;1.43;74.23
27210;BME280;14721;42.668;23.386;2023-02-12T07:31:11;96326.72;;;1.41;74.01
27210;BME280;14721;42.668;23.386;2023-02-12T07:33:38;96323.41;;;1.33;74.46
27210;BME280;14721;42.668;23.386;2023-02-12T07:36:05;96318.06;;;1.36;74.36
27210;BME280;14721;42.668;23.386;2023-02-12T07:38:31;96330.84;;;1.53;73.96
27210;BME280;14721;42.668;23.386;2023-02-12T07:43:33;96331.78;;;1.49;74.07
27210;BME280;14721;42.668;23.386;2023-02-12T07:46:20;96336.19;;;1.50;74.22
27210;BME280;14721;42.668;23.386;2023-02-12T07:48:47;96340.00;;;1.35;74.64
27210;BME280;14721;42.668;23.386;2023-02-12T07:51:17;96338.97;;;1.44;74.61
27210;BME280;14721;42.668;23.386;2023-02-12T07:53:43;96331.00;;;1.47;74.47
27210;BME280;14721;42.668;23.386;2023-02-12T07:56:24;96331.13;;;1.41;74.30
27210;BME280;14721;42.668;23.386;2023-02-12T07:58:51;96327.69;;;1.37;74.56
27210;BME280;14721;42.668;23.386;2023-02-12T08:03:43;96323.06;;;1.48;74.58
27210;BME280;14721;42.668;23.386;2023-02-12T08:06:30;96343.25;;;1.48;74.54
27210;BME280;14721;42.668;23.386;2023-02-12T08:08:59;96337.91;;;1.51;74.35
27210;BME280;14721;42.668;23.386;2023-02-12T08:11:26;96335.22;;;1.52;74.31
27210;BME280;14721;42.668;23.386;2023-02-12T08:13:52;96332.50;;;1.57;74.25
27210;BME280;14721;42.668;23.386;2023-02-12T08:16:23;96339.66;;;1.50;74.66
27210;BME280;14721;42.668;23.386;2023-02-12T08:18:50;96338.78;;;1.51;74.95
27210;BME280;14721;42.668;23.386;2023-02-12T08:21:21;96337.03;;;1.50;75.30
27210;BME280;14721;42.668;23.386;2023-02-12T08:23:48;96338.06;;;1.43;75.62
27210;BME280;14721;42.668;23.386;2023-02-12T08:26:19;96351.03;;;1.52;75.37
27210;BME280;14721;42.668;23.386;2023-02-12T08:28:48;96352.13;;;1.44;75.33
27210;BME280;14721;42.668;23.386;2023-02-12T08:31:17;96364.28;;;1.49;75.50
27210;BME280;14721;42.668;23.386;2023-02-12T08:33:45;96373.00;;;1.51;75.87
27210;BME280;14721;42.668;23.386;2023-02-12T08:36:12;96368.31;;;1.64;75.51
27210;BME280;14721;42.668;23.386;2023-02-12T08:38:40;96376.97;;;1.69;75.31
27210;BME280;14721;42.668;23.386;2023-02-12T08:41:09;96361.19;;;1.69;74.57
27210;BME280;14721;42.668;23.386;2023-02-12T08:43:35;96368.09;;;1.73;74.79
27210;BME280;14721;42.668;23.386;2023-02-12T08:46:09;96377.06;;;1.66;74.53
27210;BME280;14721;42.668;23.386;2023-02-12T08:48:36;96387.03;;;1.52;75.10
27210;BME280;14721;42.668;23.386;2023-02-12T08:53:31;96376.56;;;1.49;75.93
27210;BME280;14721;42.668;23.386;2023-02-12T08:55:56;96383.34;;;1.60;75.80
27210;BME280;14721;42.668;23.386;2023-02-12T08:58:22;96383.91;;;1.73;75.31
27210;BME280;14721;42.668;23.386;2023-02-12T09:00:47;96393.25;;;1.87;74.67
27210;BME280;14721;42.668;23.386;2023-02-12T09:03:13;96390.50;;;1.92;74.57
27210;BME280;14721;42.668;23.386;2023-02-12T09:05:39;96382.78;;;1.84;74.65
27210;BME280;14721;42.668;23.386;2023-02-12T09:08:06;96392.22;;;1.93;74.40
27210;BME280;14721;42.668;23.386;2023-02-12T09:10:31;96393.78;;;2.00;74.08
27210;BME280;14721;42.668;23.386;2023-02-12T09:12:57;96389.53;;;1.94;73.88
27210;BME280;14721;42.668;23.386;2023-02-12T09:15:22;96393.09;;;1.93;74.15
27210;BME280;14721;42.668;23.386;2023-02-12T09:17:47;96400.88;;;1.98;74.13
27210;BME280;14721;42.668;23.386;2023-02-12T09:20:13;96397.31;;;2.01;74.05
27210;BME280;14721;42.668;23.386;2023-02-12T09:22:38;96397.91;;;2.12;74.63
27210;BME280;14721;42.668;23.386;2023-02-12T09:25:05;96396.00;;;2.17;74.57
27210;BME280;14721;42.668;23.386;2023-02-12T09:27:31;96409.97;;;2.22;74.46
27210;BME280;14721;42.668;23.386;2023-02-12T09:29:56;96409.06;;;2.21;74.37
27210;BME280;14721;42.668;23.386;2023-02-12T09:32:21;96408.03;;;2.28;74.30
27210;BME280;14721;42.668;23.386;2023-02-12T09:34:47;96400.94;;;2.30;73.93
27210;BME280;14721;42.668;23.386;2023-02-12T09:37:13;96414.53;;;2.49;73.99
27210;BME280;14721;42.668;23.386;2023-02-12T09:39:38;96403.41;;;2.70;73.07
27210;BME280;14721;42.668;23.386;2023-02-12T09:42:51;96406.41;;;2.56;72.88
27210;BME280;14721;42.668;23.386;2023-02-12T09:45:26;96410.25;;;2.45;73.42
27210;BME280;14721;42.668;23.386;2023-02-12T09:48:12;96411.97;;;2.46;73.01
27210;BME280;14721;42.668;23.386;2023-02-12T09:50:50;96414.81;;;2.38;73.52
27210;BME280;14721;42.668;23.386;2023-02-12T09:53:20;96421.59;;;2.47;73.51
27210;BME280;14721;42.668;23.386;2023-02-12T09:55:47;96415.03;;;2.63;73.24
27210;BME280;14721;42.668;23.386;2023-02-12T09:58:17;96410.13;;;2.81;72.53
27210;BME280;14721;42.668;23.386;2023-02-12T10:00:44;96407.25;;;2.90;72.19
27210;BME280;14721;42.668;23.386;2023-02-12T10:03:14;96409.63;;;2.99;72.02
27210;BME280;14721;42.668;23.386;2023-02-12T10:05:58;96418.78;;;3.17;71.51
27210;BME280;14721;42.668;23.386;2023-02-12T10:08:39;96410.44;;;3.32;70.32
27210;BME280;14721;42.668;23.386;2023-02-12T10:24:29;96414.84;;;3.60;68.89
27210;BME280;14721;42.668;23.386;2023-02-12T10:27:08;96414.06;;;3.58;68.97
27210;BME280;14721;42.668;23.386;2023-02-12T10:29:38;96418.38;;;3.61;68.51
27210;BME280;14721;42.668;23.386;2023-02-12T10:34:44;96410.72;;;3.52;68.18
27210;BME280;14721;42.668;23.386;2023-02-12T10:37:36;96416.69;;;3.58;68.28
27210;BME280;14721;42.668;23.386;2023-02-12T10:40:13;96414.38;;;3.48;68.45
27210;BME280;14721;42.668;23.386;2023-02-12T10:42:44;96416.50;;;3.35;69.24
27210;BME280;14721;42.668;23.386;2023-02-12T10:45:17;96408.13;;;3.50;68.74
27210;BME280;14721;42.668;23.386;2023-02-12T10:47:45;96420.00;;;3.65;68.71
27210;BME280;14721;42.668;23.386;2023-02-12T10:50:32;96420.81;;;3.96;68.19
27210;BME280;14721;42.668;23.386;2023-02-12T10:53:02;96428.56;;;4.28;66.62
27210;BME280;14721;42.668;23.386;2023-02-12T10:55:33;96429.41;;;4.30;66.04
27210;BME280;14721;42.668;23.386;2023-02-12T10:58:00;96419.06;;;4.23;65.92
27210;BME280;14721;42.668;23.386;2023-02-12T11:00:34;96427.03;;;4.21;66.03
27210;BME280;14721;42.668;23.386;2023-02-12T11:05:29;96415.78;;;4.15;66.29
27210;BME280;14721;42.668;23.386;2023-02-12T11:07:55;96420.78;;;4.24;66.25
27210;BME280;14721;42.668;23.386;2023-02-12T11:12:57;96411.47;;;4.12;66.08
27210;BME280;14721;42.668;23.386;2023-02-12T11:15:25;96412.78;;;4.25;65.65
27210;BME280;14721;42.668;23.386;2023-02-12T11:18:03;96412.69;;;4.28;65.57
27210;BME280;14721;42.668;23.386;2023-02-12T11:20:47;96416.66;;;4.15;66.02
27210;BME280;14721;42.668;23.386;2023-02-12T11:26:00;96412.28;;;4.14;66.37
27210;BME280;14721;42.668;23.386;2023-02-12T11:28:27;96410.03;;;4.28;65.65
27210;BME280;14721;42.668;23.386;2023-02-12T11:30:59;96412.09;;;4.20;65.87
27210;BME280;14721;42.668;23.386;2023-02-12T11:33:29;96410.44;;;4.16;66.11
27210;BME280;14721;42.668;23.386;2023-02-12T11:36:02;96401.00;;;4.35;65.96
27210;BME280;14721;42.668;23.386;2023-02-12T11:38:35;96402.47;;;4.44;66.04
27210;BME280;14721;42.668;23.386;2023-02-12T11:41:07;96398.41;;;4.34;66.37
27210;BME280;14721;42.668;23.386;2023-02-12T11:43:44;96391.63;;;4.25;66.32
27210;BME280;14721;42.668;23.386;2023-02-12T11:46:18;96414.69;;;4.48;66.25
27210;BME280;14721;42.668;23.386;2023-02-12T11:48:45;96414.78;;;4.45;66.06
27210;BME280;14721;42.668;23.386;2023-02-12T11:51:18;96416.84;;;4.37;66.12
27210;BME280;14721;42.668;23.386;2023-02-12T11:53:49;96411.13;;;4.49;66.00
27210;BME280;14721;42.668;23.386;2023-02-12T11:56:16;96399.22;;;4.62;65.77
27210;BME280;14721;42.668;23.386;2023-02-12T11:58:44;96413.63;;;4.78;65.03
27210;BME280;14721;42.668;23.386;2023-02-12T12:01:25;96402.41;;;4.71;64.65
27210;BME280;14721;42.668;23.386;2023-02-12T12:04:11;96420.84;;;4.74;64.80
27210;BME280;14721;42.668;23.386;2023-02-12T12:06:58;96418.09;;;4.77;63.52
27210;BME280;14721;42.668;23.386;2023-02-12T12:09:40;96411.38;;;4.92;63.63
27210;BME280;14721;42.668;23.386;2023-02-12T12:12:23;96411.56;;;4.87;63.60
27210;BME280;14721;42.668;23.386;2023-02-12T12:20:40;96417.75;;;5.11;63.68
27210;BME280;14721;42.668;23.386;2023-02-12T12:23:30;96418.06;;;5.26;62.78
27210;BME280;14721;42.668;23.386;2023-02-12T12:26:01;96422.94;;;5.14;63.13
27210;BME280;14721;42.668;23.386;2023-02-12T12:28:50;96414.59;;;5.24;63.37
27210;BME280;14721;42.668;23.386;2023-02-12T12:34:12;96425.22;;;5.24;63.11
27210;BME280;14721;42.668;23.386;2023-02-12T12:39:50;96433.81;;;4.82;63.53
27210;BME280;14721;42.668;23.386;2023-02-12T12:45:33;96420.78;;;4.76;63.71
27210;BME280;14721;42.668;23.386;2023-02-12T12:56:51;96437.56;;;5.01;64.19
27210;BME280;14721;42.668;23.386;2023-02-12T12:59:44;96439.72;;;5.14;63.28
27210;BME280;14721;42.668;23.386;2023-02-12T13:10:47;96439.47;;;4.96;63.55
27210;BME280;14721;42.668;23.386;2023-02-12T13:13:35;96449.44;;;4.89;63.28
27210;BME280;14721;42.668;23.386;2023-02-12T13:16:43;96444.16;;;4.89;63.78
27210;BME280;14721;42.668;23.386;2023-02-12T13:25:06;96439.38;;;4.99;63.45
27210;BME280;14721;42.668;23.386;2023-02-12T13:27:41;96447.31;;;4.99;63.81
27210;BME280;14721;42.668;23.386;2023-02-12T13:30:21;96456.34;;;4.93;63.69
27210;BME280;14721;42.668;23.386;2023-02-12T13:33:12;96448.50;;;4.90;63.87
27210;BME280;14721;42.668;23.386;2023-02-12T13:35:42;96454.94;;;4.83;64.47
27210;BME280;14721;42.668;23.386;2023-02-12T13:38:16;96433.88;;;4.80;64.60
27210;BME280;14721;42.668;23.386;2023-02-12T13:40:43;96460.78;;;4.93;64.57
27210;BME280;14721;42.668;23.386;2023-02-12T13:46:33;96460.66;;;4.96;64.17
27210;BME280;14721;42.668;23.386;2023-02-12T13:52:32;96463.06;;;4.79;64.58
27210;BME280;14721;42.668;23.386;2023-02-12T13:55:14;96475.38;;;4.80;64.69
27210;BME280;14721;42.668;23.386;2023-02-12T13:57:45;96474.50;;;4.79;64.63
27210;BME280;14721;42.668;23.386;2023-02-12T14:03:14;96480.34;;;4.89;64.91
27210;BME280;14721;42.668;23.386;2023-02-12T14:05:40;96476.88;;;4.87;65.10
27210;BME280;14721;42.668;23.386;2023-02-12T14:08:06;96490.84;;;4.92;64.92
27210;BME280;14721;42.668;23.386;2023-02-12T14:11:08;96500.56;;;4.91;64.79
27210;BME280;14721;42.668;23.386;2023-02-12T14:13:55;96497.13;;;4.89;64.76
27210;BME280;14721;42.668;23.386;2023-02-12T14:22:13;96489.00;;;4.68;65.47
27210;BME280;14721;42.668;23.386;2023-02-12T14:24:57;96496.94;;;4.68;65.43
27210;BME280;14721;42.668;23.386;2023-02-12T14:27:48;96508.13;;;4.77;65.73
27210;BME280;14721;42.668;23.386;2023-02-12T14:37:52;96515.63;;;4.63;66.18
27210;BME280;14721;42.668;23.386;2023-02-12T14:43:18;96528.97;;;4.60;66.79
27210;BME280;14721;42.668;23.386;2023-02-12T14:45:48;96529.13;;;4.56;66.61
27210;BME280;14721;42.668;23.386;2023-02-12T14:48:40;96540.63;;;4.55;66.28
27210;BME280;14721;42.668;23.386;2023-02-12T14:51:40;96541.81;;;4.45;66.68
27210;BME280;14721;42.668;23.386;2023-02-12T14:54:18;96536.69;;;4.39;66.59
27210;BME280;14721;42.668;23.386;2023-02-12T14:56:47;96534.06;;;4.39;66.59
27210;BME280;14721;42.668;23.386;2023-02-12T14:59:18;96550.81;;;4.39;66.64
27210;BME280;14721;42.668;23.386;2023-02-12T15:01:44;96551.59;;;4.43;66.53
27210;BME280;14721;42.668;23.386;2023-02-12T15:04:25;96562.47;;;4.34;66.63
27210;BME280;14721;42.668;23.386;2023-02-12T15:07:06;96561.88;;;4.24;67.78
27210;BME280;14721;42.668;23.386;2023-02-12T15:09:36;96562.00;;;4.20;67.65
27210;BME280;14721;42.668;23.386;2023-02-12T15:12:16;96570.03;;;4.17;67.85
27210;BME280;14721;42.668;23.386;2023-02-12T15:14:49;96571.78;;;4.16;67.85
27210;BME280;14721;42.668;23.386;2023-02-12T15:17:27;96575.41;;;4.14;67.72
27210;BME280;14721;42.668;23.386;2023-02-12T15:20:00;96589.28;;;4.22;67.83
27210;BME280;14721;42.668;23.386;2023-02-12T15:22:34;96598.16;;;4.19;67.71
27210;BME280;14721;42.668;23.386;2023-02-12T15:25:19;96609.47;;;4.24;67.85
27210;BME280;14721;42.668;23.386;2023-02-12T15:27:48;96618.56;;;4.16;67.99
27210;BME280;14721;42.668;23.386;2023-02-12T15:30:16;96618.56;;;4.16;68.25
27210;BME280;14721;42.668;23.386;2023-02-12T15:32:44;96631.03;;;4.11;68.22